createdAt,value
2018-07-23T00:02:05.488Z,24.96
2018-07-23T00:04:33.997Z,24.92
2018-07-23T00:07:02.532Z,24.87
2018-07-23T00:09:31.101Z,24.84
2018-07-23T00:11:59.693Z,24.81
2018-07-23T00:14:28.872Z,24.78
2018-07-23T00:16:57.509Z,24.75
2018-07-23T00:19:26.043Z,24.72
2018-07-23T00:21:54.612Z,24.69
2018-07-23T00:24:23.120Z,24.67
2018-07-23T00:26:51.600Z,24.65
2018-07-23T00:29:20.051Z,24.62
2018-07-23T00:31:48.545Z,24.58
2018-07-23T00:34:17.048Z,24.52
2018-07-23T00:36:45.565Z,24.46
2018-07-23T00:39:14.064Z,24.41
2018-07-23T00:41:42.537Z,24.35
2018-07-23T00:44:11.023Z,24.28
2018-07-23T00:46:39.581Z,24.25
2018-07-23T00:49:08.036Z,24.21
2018-07-23T00:51:36.605Z,24.16
2018-07-23T00:54:05.186Z,24.12
2018-07-23T00:56:33.733Z,24.07
2018-07-23T00:59:02.242Z,24.02
2018-07-23T01:01:30.807Z,23.99
2018-07-23T01:03:59.303Z,23.95
2018-07-23T01:06:27.757Z,23.91
2018-07-23T01:08:56.220Z,23.89
2018-07-23T01:11:24.716Z,23.89
2018-07-23T01:13:53.318Z,23.84
2018-07-23T01:16:21.932Z,23.84
2018-07-23T01:18:51.010Z,23.78
2018-07-23T01:21:19.496Z,23.71
2018-07-23T01:23:48.010Z,23.67
2018-07-23T01:26:16.569Z,23.61
2018-07-23T01:28:45.098Z,23.58
2018-07-23T01:31:13.576Z,23.55
2018-07-23T01:33:42.048Z,23.54
2018-07-23T01:36:10.523Z,23.54
2018-07-23T01:38:39.035Z,23.53
2018-07-23T01:41:07.639Z,23.52
2018-07-23T01:43:36.157Z,23.51
2018-07-23T01:46:04.673Z,23.50
2018-07-23T01:48:33.143Z,23.47
2018-07-23T01:51:01.646Z,23.45
2018-07-23T01:53:30.249Z,23.42
2018-07-23T01:55:58.758Z,23.32
2018-07-23T01:58:27.234Z,23.29
2018-07-23T02:00:55.764Z,23.26
2018-07-23T02:03:24.249Z,23.21
2018-07-23T02:05:52.755Z,23.19
2018-07-23T02:08:21.238Z,23.18
2018-07-23T02:10:49.748Z,23.16
2018-07-23T02:13:18.419Z,23.16
2018-07-23T02:15:47.057Z,23.14
2018-07-23T02:18:15.695Z,23.10
2018-07-23T02:20:44.248Z,23.08
2018-07-23T02:23:12.940Z,23.04
2018-07-23T02:25:41.512Z,22.96
2018-07-23T02:28:10.081Z,22.95
2018-07-23T02:30:38.702Z,22.91
2018-07-23T02:33:07.252Z,22.91
2018-07-23T02:35:36.117Z,22.92
2018-07-23T02:38:04.655Z,22.92
2018-07-23T02:40:33.243Z,22.91
2018-07-23T02:43:01.865Z,22.89
2018-07-23T02:45:30.487Z,22.90
2018-07-23T02:47:59.213Z,22.88
2018-07-23T02:50:27.888Z,22.89
2018-07-23T02:52:56.472Z,22.86
2018-07-23T02:55:25.061Z,22.86
2018-07-23T02:57:53.680Z,22.85
2018-07-23T03:00:22.327Z,22.84
2018-07-23T03:02:51.247Z,22.81
2018-07-23T03:05:19.978Z,22.81
2018-07-23T03:07:48.563Z,22.80
2018-07-23T03:10:17.129Z,22.77
2018-07-23T03:12:45.727Z,22.75
2018-07-23T03:15:14.316Z,22.73
2018-07-23T03:17:42.915Z,22.71
2018-07-23T03:20:11.468Z,22.69
2018-07-23T03:22:40.100Z,22.68
2018-07-23T03:25:08.761Z,22.64
2018-07-23T03:27:37.383Z,22.62
2018-07-23T03:30:05.947Z,22.60
2018-07-23T03:32:34.741Z,22.60
2018-07-23T03:35:03.251Z,22.60
2018-07-23T03:37:31.829Z,22.59
2018-07-23T03:40:00.401Z,22.57
2018-07-23T03:42:28.970Z,22.55
2018-07-23T03:44:57.537Z,22.52
2018-07-23T03:47:26.202Z,22.50
2018-07-23T03:49:54.879Z,22.48
2018-07-23T03:52:23.416Z,22.48
2018-07-23T03:54:52.050Z,22.50
2018-07-23T03:57:20.708Z,22.51
2018-07-23T03:59:49.653Z,22.50
2018-07-23T04:02:18.377Z,22.51
2018-07-23T04:04:47.285Z,22.53
2018-07-23T04:07:15.833Z,22.53
2018-07-23T04:09:44.360Z,22.53
2018-07-23T04:12:12.989Z,22.52
2018-07-23T04:14:41.599Z,22.52
2018-07-23T04:17:10.273Z,22.53
2018-07-23T04:19:38.811Z,22.53
2018-07-23T04:22:07.538Z,22.50
2018-07-23T04:24:36.145Z,22.47
2018-07-23T04:27:04.752Z,22.43
2018-07-23T04:29:33.275Z,22.40
2018-07-23T04:32:02.628Z,22.38
2018-07-23T04:34:31.200Z,22.39
2018-07-23T04:36:59.751Z,22.43
2018-07-23T04:39:28.362Z,22.46
2018-07-23T04:41:56.910Z,22.51
2018-07-23T04:44:25.520Z,22.53
2018-07-23T04:46:54.180Z,22.58
2018-07-23T04:49:22.800Z,22.60
2018-07-23T04:51:51.338Z,22.60
2018-07-23T04:54:19.926Z,22.61
2018-07-23T04:56:48.537Z,22.64
2018-07-23T04:59:16.985Z,22.68
2018-07-23T05:01:45.517Z,22.72
2018-07-23T05:04:14.051Z,22.77
2018-07-23T05:06:42.563Z,22.83
2018-07-23T05:09:12.492Z,22.87
2018-07-23T05:11:41.357Z,22.89
2018-07-23T05:14:10.404Z,22.91
2018-07-23T05:16:39.414Z,22.94
2018-07-23T05:19:08.301Z,22.98
2018-07-23T05:21:36.886Z,23.01
2018-07-23T05:24:05.548Z,23.11
2018-07-23T05:26:34.144Z,23.21
2018-07-23T05:29:02.794Z,23.29
2018-07-23T05:31:31.321Z,23.38
2018-07-23T05:33:59.849Z,23.44
2018-07-23T05:36:28.480Z,23.53
2018-07-23T05:38:57.084Z,23.63
2018-07-23T05:41:25.731Z,23.71
2018-07-23T05:43:54.438Z,23.76
2018-07-23T05:46:23.007Z,23.84
2018-07-23T05:48:51.774Z,23.94
2018-07-23T05:51:20.389Z,24.08
2018-07-23T05:53:48.979Z,24.27
2018-07-23T05:56:18.645Z,24.56
2018-07-23T05:58:47.422Z,25.03
2018-07-23T06:01:16.074Z,25.52
2018-07-23T06:03:53.948Z,26.04
2018-07-23T06:06:22.540Z,26.59
2018-07-23T06:08:51.325Z,27.11
2018-07-23T06:11:19.832Z,27.63
2018-07-23T06:13:48.348Z,28.12
2018-07-23T06:16:16.965Z,28.59
2018-07-23T06:18:45.540Z,29.07
2018-07-23T06:21:14.124Z,29.57
2018-07-23T06:23:42.762Z,30.02
2018-07-23T06:26:11.593Z,30.44
2018-07-23T06:28:40.207Z,30.78
2018-07-23T06:31:08.808Z,31.18
2018-07-23T06:33:37.473Z,31.57
2018-07-23T06:36:06.151Z,31.93
2018-07-23T06:38:34.794Z,32.30
2018-07-23T06:41:03.349Z,32.68
2018-07-23T06:43:32.134Z,33.14
2018-07-23T06:46:00.850Z,33.43
2018-07-23T06:48:29.522Z,33.60
2018-07-23T06:50:58.181Z,33.66
2018-07-23T06:53:26.793Z,33.84
2018-07-23T06:55:55.322Z,34.07
2018-07-23T06:58:23.798Z,34.25
2018-07-23T07:00:52.356Z,34.47
2018-07-23T07:03:21.021Z,34.92
2018-07-23T07:05:49.719Z,35.43
2018-07-23T07:08:18.473Z,35.97
2018-07-23T07:10:47.046Z,36.41
2018-07-23T07:13:16.138Z,36.84
2018-07-23T07:15:44.743Z,37.19
2018-07-23T07:18:13.305Z,37.51
2018-07-23T07:20:41.808Z,37.90
2018-07-23T07:23:10.306Z,38.25
2018-07-23T07:25:38.827Z,38.54
2018-07-23T07:28:07.318Z,38.78
2018-07-23T07:30:35.826Z,39.06
2018-07-23T07:33:04.313Z,39.35
2018-07-23T07:35:32.892Z,39.64
2018-07-23T07:38:01.547Z,39.90
2018-07-23T07:40:30.063Z,40.13
2018-07-23T07:42:59.667Z,40.36
2018-07-23T07:45:28.274Z,40.57
2018-07-23T07:47:56.885Z,40.85
2018-07-23T07:50:25.464Z,41.10
2018-07-23T07:52:53.993Z,41.37
2018-07-23T07:55:22.604Z,41.66
2018-07-23T07:57:51.278Z,41.89
2018-07-23T08:00:20.029Z,42.17
2018-07-23T08:02:48.745Z,42.42
2018-07-23T08:05:17.401Z,42.00
2018-07-23T08:07:46.316Z,42.65
2018-07-23T08:10:15.224Z,43.02
2018-07-23T08:12:44.124Z,43.35
2018-07-23T08:15:12.897Z,43.57
2018-07-23T08:17:41.753Z,43.77
2018-07-23T08:20:10.411Z,44.04
2018-07-23T08:22:39.221Z,44.27
2018-07-23T08:25:08.333Z,44.52
2018-07-23T08:27:37.137Z,44.79
2018-07-23T08:30:07.094Z,45.03
2018-07-23T08:32:36.272Z,45.17
2018-07-23T08:35:09.108Z,45.43
2018-07-23T08:37:38.123Z,45.67
2018-07-23T08:40:07.153Z,44.87
2018-07-23T08:42:36.200Z,44.12
2018-07-23T08:45:05.135Z,43.95
2018-07-23T08:47:33.846Z,44.68
2018-07-23T08:50:02.488Z,45.13
2018-07-23T08:52:31.196Z,44.99
2018-07-23T08:54:59.908Z,44.61
2018-07-23T08:57:29.260Z,44.40
2018-07-23T08:59:57.853Z,44.04
2018-07-23T09:02:26.574Z,43.62
2018-07-23T09:04:55.328Z,43.16
2018-07-23T09:07:24.346Z,42.73
2018-07-23T09:09:52.934Z,42.31
2018-07-23T09:12:21.716Z,41.80
2018-07-23T09:14:50.602Z,41.33
2018-07-23T09:17:19.323Z,40.96
2018-07-23T09:19:47.913Z,40.62
2018-07-23T09:22:16.657Z,40.34
2018-07-23T09:24:45.241Z,40.16
2018-07-23T09:27:14.240Z,39.36
2018-07-23T09:29:42.922Z,40.13
2018-07-23T09:32:11.569Z,40.30
2018-07-23T09:34:40.483Z,40.37
2018-07-23T09:37:09.080Z,40.34
2018-07-23T09:39:37.942Z,40.46
2018-07-23T09:42:06.639Z,40.93
2018-07-23T09:44:35.444Z,41.10
2018-07-23T09:47:04.185Z,41.85
2018-07-23T09:49:32.717Z,42.55
2018-07-23T09:52:01.266Z,42.85
2018-07-23T09:54:29.968Z,43.10
2018-07-23T09:56:58.557Z,43.18
2018-07-23T09:59:27.153Z,43.36
2018-07-23T10:01:55.683Z,43.55
2018-07-23T10:04:24.241Z,43.87
2018-07-23T10:06:54.776Z,44.31
2018-07-23T10:09:23.441Z,44.30
2018-07-23T10:11:52.128Z,44.85
2018-07-23T10:14:21.170Z,45.73
2018-07-23T10:16:49.742Z,46.84
2018-07-23T10:19:18.387Z,47.54
2018-07-23T10:21:46.918Z,48.18
2018-07-23T10:24:15.469Z,48.51
2018-07-23T10:26:44.046Z,48.23
2018-07-23T10:29:12.547Z,47.38
2018-07-23T10:31:41.189Z,46.45
2018-07-23T10:34:09.775Z,45.40
2018-07-23T10:36:38.505Z,44.51
2018-07-23T10:39:08.854Z,43.75
2018-07-23T10:41:37.485Z,43.39
2018-07-23T10:44:06.084Z,43.66
2018-07-23T10:46:34.763Z,45.02
2018-07-23T10:49:03.329Z,46.12
2018-07-23T10:51:31.924Z,47.18
2018-07-23T10:54:00.511Z,48.45
2018-07-23T10:56:29.195Z,49.69
2018-07-23T10:58:57.809Z,50.73
2018-07-23T11:01:26.528Z,51.41
2018-07-23T11:03:55.378Z,51.67
2018-07-23T11:06:24.077Z,51.93
2018-07-23T11:08:53.089Z,51.62
2018-07-23T11:11:21.690Z,51.77
2018-07-23T11:13:50.400Z,51.68
2018-07-23T11:16:19.087Z,51.64
2018-07-23T11:18:47.763Z,51.64
2018-07-23T11:21:16.619Z,51.34
2018-07-23T11:23:45.628Z,49.87
2018-07-23T11:26:14.238Z,48.25
2018-07-23T11:28:42.776Z,46.88
2018-07-23T11:31:11.433Z,45.80
2018-07-23T11:33:40.165Z,45.83
2018-07-23T11:36:08.780Z,45.91
2018-07-23T11:38:37.438Z,45.31
2018-07-23T11:41:05.985Z,44.40
2018-07-23T11:43:34.852Z,43.57
2018-07-23T11:46:03.522Z,42.81
2018-07-23T11:48:32.175Z,42.11
2018-07-23T11:51:00.988Z,41.59
2018-07-23T11:53:30.037Z,41.31
2018-07-23T11:55:58.736Z,40.90
2018-07-23T11:58:27.508Z,40.61
2018-07-23T12:00:56.257Z,40.42
2018-07-23T12:03:24.896Z,40.22
2018-07-23T12:05:53.486Z,40.12
2018-07-23T12:08:22.710Z,40.05
2018-07-23T12:10:51.369Z,39.99
2018-07-23T12:13:20.488Z,39.97
2018-07-23T12:15:49.081Z,39.85
2018-07-23T12:18:18.349Z,39.79
2018-07-23T12:20:47.181Z,39.71
2018-07-23T12:23:15.829Z,39.61
2018-07-23T12:25:44.392Z,39.53
2018-07-23T12:28:13.111Z,39.47
2018-07-23T12:30:41.716Z,39.40
2018-07-23T12:33:10.371Z,39.32
2018-07-23T12:35:39.048Z,39.26
2018-07-23T12:38:07.631Z,39.27
2018-07-23T12:40:36.320Z,39.24
2018-07-23T12:43:04.955Z,39.20
2018-07-23T12:45:33.715Z,39.23
2018-07-23T12:48:02.400Z,39.22
2018-07-23T12:50:31.296Z,39.13
2018-07-23T12:52:59.965Z,39.09
2018-07-23T12:55:28.520Z,39.07
2018-07-23T12:57:57.127Z,38.99
2018-07-23T13:00:25.863Z,38.85
2018-07-23T13:02:54.479Z,38.65
2018-07-23T13:05:26.424Z,38.44
2018-07-23T13:07:55.569Z,38.28
2018-07-23T13:10:24.465Z,38.21
2018-07-23T13:12:53.364Z,38.29
2018-07-23T13:15:21.891Z,38.29
2018-07-23T13:17:50.454Z,38.30
2018-07-23T13:20:19.084Z,38.40
2018-07-23T13:22:48.471Z,38.43
2018-07-23T13:25:17.427Z,38.40
2018-07-23T13:27:46.528Z,38.33
2018-07-23T13:30:15.415Z,38.33
2018-07-23T13:32:45.276Z,38.30
2018-07-23T13:35:13.995Z,38.31
2018-07-23T13:37:43.254Z,38.29
2018-07-23T13:40:11.902Z,38.26
2018-07-23T13:42:40.693Z,38.24
2018-07-23T13:45:09.300Z,38.27
2018-07-23T13:47:37.919Z,38.34
2018-07-23T13:50:06.705Z,38.42
2018-07-23T13:52:35.318Z,38.45
2018-07-23T13:55:04.300Z,38.48
2018-07-23T13:57:33.184Z,38.52
2018-07-23T14:00:01.857Z,38.50
2018-07-23T14:02:30.803Z,38.43
2018-07-23T14:04:59.413Z,38.37
2018-07-23T14:07:28.452Z,38.34
2018-07-23T14:09:57.199Z,38.38
2018-07-23T14:12:25.713Z,38.44
2018-07-23T14:14:54.641Z,38.54
2018-07-23T14:17:23.238Z,38.64
2018-07-23T14:19:51.856Z,38.59
2018-07-23T14:22:20.391Z,38.42
2018-07-23T14:24:48.933Z,38.25
2018-07-23T14:27:17.598Z,38.17
2018-07-23T14:29:46.447Z,38.15
2018-07-23T14:32:15.112Z,38.11
2018-07-23T14:34:43.881Z,38.01
2018-07-23T14:37:12.536Z,37.92
2018-07-23T14:39:42.084Z,37.81
2018-07-23T14:42:10.830Z,37.70
2018-07-23T14:44:39.529Z,37.61
2018-07-23T14:47:08.076Z,37.52
2018-07-23T14:49:36.783Z,37.42
2018-07-23T14:52:05.420Z,37.33
2018-07-23T14:54:34.249Z,37.24
2018-07-23T14:57:04.005Z,37.18
2018-07-23T14:59:32.611Z,37.15
2018-07-23T15:02:02.369Z,37.18
2018-07-23T15:04:30.990Z,37.15
2018-07-23T15:06:59.595Z,37.12
2018-07-23T15:09:28.206Z,37.06
2018-07-23T15:11:57.212Z,37.01
2018-07-23T15:14:25.808Z,37.00
2018-07-23T15:16:54.546Z,36.98
2018-07-23T15:19:23.116Z,37.02
2018-07-23T15:21:51.831Z,37.02
2018-07-23T15:24:20.422Z,36.93
2018-07-23T15:26:49.057Z,36.78
2018-07-23T15:29:17.674Z,36.66
2018-07-23T15:31:46.275Z,36.59
2018-07-23T15:34:14.869Z,36.54
2018-07-23T15:36:43.695Z,36.53
2018-07-23T15:39:12.403Z,36.54
2018-07-23T15:41:41.211Z,36.59
2018-07-23T15:44:09.929Z,36.57
2018-07-23T15:46:38.492Z,36.56
2018-07-23T15:49:07.151Z,36.55
2018-07-23T15:51:35.704Z,36.44
2018-07-23T15:54:04.568Z,36.40
2018-07-23T15:56:33.326Z,36.46
2018-07-23T15:59:01.977Z,36.56
2018-07-23T16:01:30.608Z,36.68
2018-07-23T16:03:59.570Z,36.77
2018-07-23T16:06:28.280Z,36.85
2018-07-23T16:08:57.057Z,36.91
2018-07-23T16:11:25.857Z,36.87
2018-07-23T16:13:54.942Z,36.83
2018-07-23T16:16:23.772Z,36.83
2018-07-23T16:18:52.395Z,36.81
2018-07-23T16:21:21.180Z,36.82
2018-07-23T16:23:49.837Z,36.81
2018-07-23T16:26:18.544Z,36.77
2018-07-23T16:28:47.301Z,36.74
2018-07-23T16:31:16.030Z,36.74
2018-07-23T16:33:44.634Z,36.68
2018-07-23T16:36:13.282Z,36.58
2018-07-23T16:38:42.042Z,36.46
2018-07-23T16:41:10.697Z,36.43
2018-07-23T16:43:39.384Z,36.40
2018-07-23T16:46:08.710Z,36.37
2018-07-23T16:48:37.402Z,36.33
2018-07-23T16:51:06.212Z,36.27
2018-07-23T16:53:34.950Z,36.18
2018-07-23T16:56:03.555Z,36.09
2018-07-23T16:58:32.345Z,35.99
2018-07-23T17:01:00.976Z,35.90
2018-07-23T17:03:29.642Z,35.78
2018-07-23T17:05:58.318Z,35.69
2018-07-23T17:08:26.960Z,35.62
2018-07-23T17:10:55.615Z,35.54
2018-07-23T17:13:24.240Z,35.47
2018-07-23T17:15:53.000Z,35.37
2018-07-23T17:18:21.730Z,35.28
2018-07-23T17:20:50.416Z,35.20
2018-07-23T17:23:19.073Z,35.11
2018-07-23T17:25:47.724Z,35.00
2018-07-23T17:28:16.376Z,34.92
2018-07-23T17:30:45.063Z,34.84
2018-07-23T17:33:13.859Z,34.78
2018-07-23T17:35:42.601Z,34.70
2018-07-23T17:38:11.492Z,34.61
2018-07-23T17:40:40.686Z,34.51
2018-07-23T17:43:09.416Z,34.39
2018-07-23T17:45:38.087Z,34.26
2018-07-23T17:48:06.891Z,34.15
2018-07-23T17:50:35.664Z,34.10
2018-07-23T17:53:04.352Z,34.03
2018-07-23T17:55:33.200Z,33.98
2018-07-23T17:58:01.829Z,33.91
2018-07-23T18:00:30.573Z,33.86
2018-07-23T18:02:59.529Z,33.82
2018-07-23T18:05:28.409Z,33.76
2018-07-23T18:07:57.189Z,33.70
2018-07-23T18:10:26.032Z,33.62
2018-07-23T18:12:54.749Z,33.56
2018-07-23T18:15:23.440Z,33.48
2018-07-23T18:17:52.078Z,33.43
2018-07-23T18:20:20.605Z,33.37
2018-07-23T18:22:49.141Z,33.30
2018-07-23T18:25:18.172Z,33.24
2018-07-23T18:27:46.727Z,33.20
2018-07-23T18:30:15.423Z,33.14
2018-07-23T18:32:44.085Z,33.07
2018-07-23T18:35:12.852Z,33.01
2018-07-23T18:37:41.488Z,32.97
2018-07-23T18:40:10.117Z,32.91
2018-07-23T18:42:39.155Z,32.83
2018-07-23T18:45:07.804Z,32.79
2018-07-23T18:47:36.722Z,32.72
2018-07-23T18:50:05.602Z,32.65
2018-07-23T18:52:34.378Z,32.57
2018-07-23T18:55:03.044Z,32.47
2018-07-23T18:57:31.701Z,32.37
2018-07-23T19:00:00.436Z,32.26
2018-07-23T19:02:33.746Z,32.16
2018-07-23T19:05:02.599Z,32.05
2018-07-23T19:07:31.535Z,31.91
2018-07-23T19:10:00.314Z,31.81
2018-07-23T19:12:28.908Z,31.72
2018-07-23T19:14:57.552Z,30.19
2018-07-23T19:17:26.215Z,31.52
2018-07-23T19:19:54.810Z,31.41
2018-07-23T19:22:23.490Z,31.33
2018-07-23T19:24:52.198Z,31.24
2018-07-23T19:27:21.610Z,31.14
2018-07-23T19:29:50.251Z,31.07
2018-07-23T19:32:19.069Z,30.98
2018-07-23T19:34:47.771Z,30.87
2018-07-23T19:37:16.465Z,30.75
2018-07-23T19:39:45.226Z,30.64
2018-07-23T19:42:14.044Z,30.55
2018-07-23T19:44:42.614Z,30.47
2018-07-23T19:47:11.247Z,30.41
2018-07-23T19:49:39.937Z,30.35
2018-07-23T19:52:08.688Z,30.27
2018-07-23T19:54:37.362Z,30.19
2018-07-23T19:57:06.086Z,30.11
2018-07-23T19:59:34.761Z,30.05
2018-07-23T20:02:03.549Z,29.98
2018-07-23T20:04:32.235Z,29.92
2018-07-23T20:07:00.944Z,29.86
2018-07-23T20:09:29.494Z,29.80
2018-07-23T20:11:58.399Z,29.75
2018-07-23T20:14:26.930Z,29.70
2018-07-23T20:16:55.557Z,29.64
2018-07-23T20:19:24.192Z,29.57
2018-07-23T20:21:53.039Z,29.50
2018-07-23T20:24:21.568Z,29.44
2018-07-23T20:26:50.258Z,29.38
2018-07-23T20:29:19.093Z,29.31
2018-07-23T20:31:48.242Z,29.27
2018-07-23T20:34:20.682Z,29.20
2018-07-23T20:36:52.544Z,29.16
2018-07-23T20:39:21.435Z,29.11
2018-07-23T20:41:50.024Z,29.06
2018-07-23T20:44:18.658Z,29.00
2018-07-23T20:46:47.476Z,28.93
2018-07-23T20:49:16.131Z,28.88
2018-07-23T20:51:44.775Z,28.81
2018-07-23T20:54:13.578Z,28.75
2018-07-23T20:56:42.590Z,28.71
2018-07-23T20:59:11.212Z,28.65
2018-07-23T21:01:40.159Z,28.59
2018-07-23T21:04:09.024Z,28.54
2018-07-23T21:06:37.785Z,28.49
2018-07-23T21:09:07.722Z,28.45
2018-07-23T21:11:36.752Z,28.41
2018-07-23T21:14:05.513Z,28.37
2018-07-23T21:16:34.231Z,28.31
2018-07-23T21:19:02.864Z,28.26
2018-07-23T21:21:31.425Z,28.21
2018-07-23T21:24:00.112Z,28.16
2018-07-23T21:26:28.733Z,28.12
2018-07-23T21:28:57.484Z,28.08
2018-07-23T21:31:26.291Z,28.03
2018-07-23T21:33:55.078Z,27.99
2018-07-23T21:36:23.743Z,27.96
2018-07-23T21:38:52.664Z,27.91
2018-07-23T21:41:21.437Z,27.85
2018-07-23T21:43:50.242Z,27.81
2018-07-23T21:46:19.085Z,27.78
2018-07-23T21:48:48.138Z,27.75
2018-07-23T21:51:16.934Z,27.71
2018-07-23T21:53:45.765Z,27.66
2018-07-23T21:56:14.533Z,27.63
2018-07-23T21:58:43.298Z,27.59
2018-07-23T22:01:12.048Z,27.52
2018-07-23T22:03:40.612Z,27.48
2018-07-23T22:06:09.286Z,27.44
2018-07-23T22:08:37.889Z,27.39
2018-07-23T22:11:06.512Z,27.35
2018-07-23T22:13:35.239Z,27.31
2018-07-23T22:16:03.760Z,27.26
2018-07-23T22:18:32.346Z,27.23
2018-07-23T22:21:00.820Z,27.18
2018-07-23T22:23:29.366Z,27.15
2018-07-23T22:25:57.868Z,27.11
2018-07-23T22:28:26.367Z,27.06
2018-07-23T22:30:54.792Z,27.03
2018-07-23T22:33:23.323Z,26.99
2018-07-23T22:35:51.918Z,26.96
2018-07-23T22:38:20.532Z,26.92
2018-07-23T22:40:49.164Z,26.88
2018-07-23T22:43:17.814Z,26.85
2018-07-23T22:45:46.415Z,26.79
2018-07-23T22:48:15.020Z,26.76
2018-07-23T22:50:43.596Z,26.73
2018-07-23T22:53:12.101Z,26.69
2018-07-23T22:55:40.685Z,26.67
2018-07-23T22:58:09.305Z,26.64
2018-07-23T23:00:37.963Z,26.61
2018-07-23T23:03:06.636Z,26.57
2018-07-23T23:05:35.132Z,26.53
2018-07-23T23:08:03.762Z,26.50
2018-07-23T23:10:32.276Z,26.48
2018-07-23T23:13:00.810Z,26.44
2018-07-23T23:15:29.485Z,26.41
2018-07-23T23:17:57.998Z,26.40
2018-07-23T23:20:26.557Z,26.36
2018-07-23T23:22:55.224Z,26.33
2018-07-23T23:25:23.820Z,26.30
2018-07-23T23:27:52.426Z,26.28
2018-07-23T23:30:21.012Z,26.26
2018-07-23T23:32:49.683Z,26.22
2018-07-23T23:35:18.353Z,26.19
2018-07-23T23:37:46.974Z,26.16
2018-07-23T23:40:15.739Z,26.13
2018-07-23T23:42:44.239Z,26.08
2018-07-23T23:45:12.929Z,26.05
2018-07-23T23:47:41.502Z,26.03
2018-07-23T23:50:10.200Z,26.01
2018-07-23T23:52:38.754Z,25.96
2018-07-23T23:55:07.292Z,25.94
2018-07-23T23:57:35.822Z,25.93
